Ogema, Minnesota
Current Conditions -  °F | °C
As of 2:15 AM on Tuesday 21 Oct 2014 (Local Time) from K3N8 Reporting Station
Clear Clear  
Wind Chill: 34°   Ceiling: Unl
Heat Index: 39°   Visibility: 10mi
Dew Point: 37°   Wind: 7mph
Humidity: 91%   Direction: 140°SE
Pressure: 30.09"   Gusts: NA
Location:  47.1°N, 95.93°W
Report Text: K3N8 210715Z AUTO 14006KT 10SM CLR 04/03 A3009 RMK AO2 T00400026
Loading
Personal Weather Stations






























Interactive Weather Map
Tropical Storm Tracking
New forecast layout! Learn more

10-Day Weather Forecast

Advertisements
Track Severe Weather on mobile